Time;durP1;ratioP1;P1;durP2;ratioP2;P2;SDS_P1;SDS_P2;PMS_P1;PMS_P2;Temp;Humidity;BMP_temperature;BMP_pressure;BME280_temperature;BME280_humidity;BME280_pressure;Samples;Min_cycle;Max_cycle;Signal;HPM_P1;HPM_P2
2022/04/26 03:38:06;;;;;;;11.65;10.38;;;7.50;99.90;;;;;;5044787;28;20216;-85
2022/04/26 03:40:34;;;;;;;12.15;10.75;;;7.50;99.90;;;;;;5055175;28;20289;-85
2022/04/26 03:43:03;;;;;;;10.32;9.25;;;7.50;99.90;;;;;;5055361;28;20253;-85
2022/04/26 03:45:31;;;;;;;12.73;10.80;;;7.50;99.90;;;;;;5055165;28;20214;-85
2022/04/26 03:48:00;;;;;;;10.88;9.88;;;7.50;99.90;;;;;;5055369;28;20255;-86
2022/04/26 03:50:29;;;;;;;11.18;10.07;;;7.50;99.90;;;;;;5055582;28;20309;-85
2022/04/26 03:52:58;;;;;;;11.18;10.13;;;7.50;99.90;;;;;;5055290;28;20236;-85
2022/04/26 03:55:26;;;;;;;11.32;10.15;;;7.50;99.90;;;;;;5055219;28;20206;-85
2022/04/26 03:57:54;;;;;;;12.93;11.45;;;7.60;99.90;;;;;;5055140;28;20206;-85
2022/04/26 04:00:23;;;;;;;9.55;8.75;;;7.50;99.90;;;;;;5055145;28;20229;-85
2022/04/26 04:02:51;;;;;;;12.18;10.10;;;7.50;99.90;;;;;;5055131;28;20309;-85
2022/04/26 04:05:19;;;;;;;11.90;10.75;;;7.60;99.90;;;;;;5055118;28;20222;-85
2022/04/26 04:07:49;;;;;;;13.45;10.57;;;7.60;99.90;;;;;;5054901;28;20300;-85
2022/04/26 04:10:18;;;;;;;11.73;10.27;;;7.60;99.90;;;;;;5054964;28;20230;-85
2022/04/26 04:12:46;;;;;;;10.33;9.23;;;7.60;99.90;;;;;;5054682;28;20340;-85
2022/04/26 04:15:14;;;;;;;18.13;10.93;;;7.60;99.90;;;;;;5054978;28;20237;-85
2022/04/26 04:17:42;;;;;;;17.52;10.63;;;7.60;99.90;;;;;;5055024;28;20273;-85
2022/04/26 04:20:11;;;;;;;13.25;11.40;;;7.60;99.90;;;;;;5054595;28;20236;-85
2022/04/26 04:22:40;;;;;;;10.90;9.80;;;7.70;99.90;;;;;;5054547;28;20244;-85
2022/04/26 04:25:10;;;;;;;10.57;9.27;;;7.70;99.90;;;;;;5054703;28;20289;-85
2022/04/26 04:27:39;;;;;;;21.65;11.32;;;7.70;99.90;;;;;;5054804;28;20293;-85
2022/04/26 04:30:09;;;;;;;10.70;9.70;;;7.60;99.90;;;;;;5054243;28;20284;-85
2022/04/26 04:32:37;;;;;;;12.25;9.52;;;7.70;99.90;;;;;;5054206;28;20281;-85
2022/04/26 04:35:07;;;;;;;31.23;10.63;;;7.70;99.90;;;;;;5054099;28;20256;-85
2022/04/26 04:37:35;;;;;;;12.23;11.00;;;7.70;99.90;;;;;;5053826;28;20320;-85
2022/04/26 04:40:03;;;;;;;13.45;11.50;;;7.70;99.90;;;;;;5054367;28;20228;-85
2022/04/26 04:42:33;;;;;;;10.80;9.75;;;7.70;99.90;;;;;;5054065;28;20285;-85
2022/04/26 04:45:02;;;;;;;10.30;9.30;;;7.70;99.90;;;;;;5054221;28;20301;-85
2022/04/26 04:47:31;;;;;;;10.65;9.63;;;7.80;99.90;;;;;;5054142;28;20201;-85
2022/04/26 04:49:59;;;;;;;11.20;10.10;;;7.80;99.90;;;;;;5053966;28;20285;-85
2022/04/26 04:52:27;;;;;;;10.98;9.88;;;7.90;99.90;;;;;;5053918;28;20312;-85
2022/04/26 04:54:55;;;;;;;10.40;9.35;;;7.90;99.90;;;;;;5053886;28;20217;-85
2022/04/26 04:57:24;;;;;;;12.18;10.20;;;8.00;99.90;;;;;;5054149;28;20293;-85
2022/04/26 04:59:54;;;;;;;11.57;9.65;;;8.00;99.90;;;;;;5054227;28;20293;-85
2022/04/26 05:02:23;;;;;;;12.27;10.70;;;8.10;99.90;;;;;;5053784;28;20317;-85
2022/04/26 05:04:51;;;;;;;11.50;10.20;;;8.20;99.90;;;;;;5054124;28;20194;-85
2022/04/26 05:07:19;;;;;;;10.05;8.98;;;8.40;99.90;;;;;;5053737;28;20237;-85
2022/04/26 05:09:48;;;;;;;9.32;8.52;;;8.50;99.90;;;;;;5053690;28;20212;-85
2022/04/26 05:12:16;;;;;;;10.88;9.80;;;8.60;99.90;;;;;;5053514;28;20221;-85
2022/04/26 05:14:45;;;;;;;9.23;8.32;;;8.80;99.90;;;;;;5053350;28;20233;-85
2022/04/26 05:17:15;;;;;;;8.85;8.05;;;8.80;99.90;;;;;;5053450;28;20305;-85
2022/04/26 05:19:43;;;;;;;10.80;9.43;;;9.00;99.90;;;;;;5053857;28;20248;-85
2022/04/26 05:22:12;;;;;;;9.25;8.45;;;9.00;99.90;;;;;;5053412;28;20237;-85
2022/04/26 05:24:56;;;;;;;10.10;9.13;;;9.10;99.90;;;;;;5053196;28;20225;-85
2022/04/26 05:27:26;;;;;;;10.65;9.63;;;9.20;99.90;;;;;;5053458;28;20271;-85
2022/04/26 05:29:55;;;;;;;9.23;8.32;;;9.30;99.90;;;;;;5053605;28;20300;-85
2022/04/26 05:32:27;;;;;;;10.57;9.48;;;9.40;99.90;;;;;;5053159;28;20251;-85
2022/04/26 05:34:57;;;;;;;9.20;8.38;;;9.50;99.90;;;;;;5053456;28;20308;-84
2022/04/26 05:37:26;;;;;;;8.48;7.68;;;9.70;99.90;;;;;;5053002;28;20232;-85
2022/04/26 05:39:55;;;;;;;13.10;10.00;;;9.80;99.90;;;;;;5052721;28;20240;-85
2022/04/26 05:42:23;;;;;;;9.57;8.20;;;9.90;99.90;;;;;;5052978;28;20260;-85
2022/04/26 05:44:51;;;;;;;13.80;9.90;;;10.00;99.90;;;;;;5053087;28;20226;-84
2022/04/26 05:47:20;;;;;;;10.90;8.15;;;10.10;99.90;;;;;;5053879;28;20237;-85
2022/04/26 05:49:50;;;;;;;9.32;8.02;;;10.20;99.90;;;;;;5052470;28;20202;-85
2022/04/26 05:52:18;;;;;;;11.10;8.65;;;10.30;99.90;;;;;;5052902;28;20249;-85
2022/04/26 05:54:46;;;;;;;11.98;9.65;;;10.40;99.90;;;;;;5052466;28;20217;-85
2022/04/26 05:57:15;;;;;;;9.15;8.20;;;10.40;99.90;;;;;;5052773;28;20225;-85
2022/04/26 05:59:43;;;;;;;9.15;8.30;;;10.50;99.90;;;;;;5052990;28;20292;-82
2022/04/26 06:02:11;;;;;;;10.07;8.27;;;10.50;99.90;;;;;;5052324;28;20232;-82
2022/04/26 06:04:40;;;;;;;9.70;8.73;;;10.60;99.90;;;;;;5052893;28;20206;-82
2022/04/26 06:07:10;;;;;;;9.30;8.40;;;10.70;99.90;;;;;;5052471;28;20229;-82
2022/04/26 06:09:39;;;;;;;9.85;8.77;;;10.80;99.90;;;;;;5052906;28;20217;-82
2022/04/26 06:12:08;;;;;;;8.93;8.02;;;10.80;99.90;;;;;;5052280;28;20244;-83
2022/04/26 06:14:36;;;;;;;9.93;8.95;;;10.90;99.90;;;;;;5052505;28;20222;-82
2022/04/26 06:17:05;;;;;;;9.90;8.40;;;10.90;99.90;;;;;;5052575;28;20217;-82
2022/04/26 06:19:33;;;;;;;9.25;8.45;;;11.00;99.90;;;;;;5052462;28;20206;-82
2022/04/26 06:22:02;;;;;;;13.38;8.43;;;11.00;99.90;;;;;;5052273;28;20272;-82
2022/04/26 06:24:32;;;;;;;9.35;8.07;;;11.00;99.90;;;;;;5052441;28;20289;-82
2022/04/26 06:27:02;;;;;;;9.07;8.18;;;11.00;99.90;;;;;;5052748;28;20208;-83
2022/04/26 06:29:31;;;;;;;8.32;7.53;;;11.00;99.90;;;;;;5052316;28;20209;-82
2022/04/26 06:31:59;;;;;;;8.90;8.07;;;11.00;99.90;;;;;;5052194;28;20229;-82
2022/04/26 06:34:27;;;;;;;8.82;8.02;;;11.10;99.90;;;;;;5052130;28;20300;-82
2022/04/26 06:36:56;;;;;;;9.95;8.95;;;11.20;99.90;;;;;;5052142;28;20288;-82
2022/04/26 06:39:24;;;;;;;10.50;8.40;;;11.20;99.90;;;;;;5052397;28;20233;-82
2022/04/26 06:41:54;;;;;;;9.68;8.65;;;11.30;99.90;;;;;;5052481;28;20312;-82
2022/04/26 06:44:22;;;;;;;9.23;8.38;;;11.30;99.90;;;;;;5051863;28;20213;-82
2022/04/26 06:46:50;;;;;;;9.50;8.50;;;11.30;99.90;;;;;;5052413;28;20206;-83
2022/04/26 06:49:19;;;;;;;7.85;7.10;;;11.30;99.90;;;;;;5052458;28;20255;-82
2022/04/26 06:51:47;;;;;;;9.57;8.68;;;11.30;99.90;;;;;;5052278;28;20301;-82
2022/04/26 06:54:15;;;;;;;9.38;7.93;;;11.40;99.90;;;;;;5052157;28;20244;-82
2022/04/26 06:56:45;;;;;;;8.90;8.00;;;11.50;99.90;;;;;;5051969;28;20285;-82
2022/04/26 06:59:15;;;;;;;9.85;8.05;;;11.60;99.90;;;;;;5052563;28;20218;-82
2022/04/26 07:01:44;;;;;;;10.70;9.07;;;11.70;99.90;;;;;;5053569;28;20229;-82
2022/04/26 07:04:13;;;;;;;9.43;8.60;;;11.70;99.90;;;;;;5056074;28;20220;-82
2022/04/26 07:06:42;;;;;;;10.73;9.00;;;11.60;99.90;;;;;;5055720;28;20193;-82
2022/04/26 07:09:10;;;;;;;10.38;9.38;;;11.50;99.90;;;;;;5055737;28;20269;-82
2022/04/26 07:11:39;;;;;;;12.98;9.98;;;11.30;99.90;;;;;;5055866;28;20249;-82
2022/04/26 07:14:07;;;;;;;9.70;8.73;;;11.20;99.90;;;;;;5055647;28;20301;-82
2022/04/26 07:16:48;;;;;;;9.60;8.70;;;11.20;99.90;;;;;;5055925;28;20224;-82
2022/04/26 07:19:18;;;;;;;11.20;9.90;;;11.10;99.90;;;;;;5055815;28;20216;-82
2022/04/26 07:21:47;;;;;;;10.52;8.52;;;11.00;99.90;;;;;;5055163;28;20233;-82
2022/04/26 07:24:32;;;;;;;12.30;9.90;;;11.00;99.90;;;;;;5055978;28;20220;-82
2022/04/26 07:27:01;;;;;;;10.60;9.50;;;10.90;99.90;;;;;;5055717;28;20283;-83
2022/04/26 07:29:29;;;;;;;10.70;9.63;;;10.90;99.90;;;;;;5056030;28;20281;-82
2022/04/26 07:31:59;;;;;;;16.08;10.25;;;10.90;99.90;;;;;;5055314;28;20260;-83
2022/04/26 07:34:27;;;;;;;11.82;9.95;;;10.90;99.90;;;;;;5055365;28;20236;-82
2022/04/26 07:36:59;;;;;;;9.88;8.88;;;11.00;99.90;;;;;;5055273;28;20226;-82
2022/04/26 07:39:28;;;;;;;9.05;8.25;;;11.00;99.90;;;;;;5055853;28;20216;-82
2022/04/26 07:41:57;;;;;;;10.27;9.18;;;11.00;99.90;;;;;;5055376;28;20226;-83
2022/04/26 07:44:25;;;;;;;10.68;9.68;;;11.00;99.90;;;;;;5055495;28;20221;-82
2022/04/26 07:46:55;;;;;;;10.82;9.77;;;11.00;99.90;;;;;;5055405;28;20236;-82
2022/04/26 07:49:27;;;;;;;10.73;9.25;;;11.00;99.90;;;;;;5055459;28;20296;-82
2022/04/26 07:51:55;;;;;;;10.02;8.63;;;11.10;99.90;;;;;;5055026;28;20304;-82
2022/04/26 07:54:24;;;;;;;9.70;8.70;;;11.10;99.90;;;;;;5055461;28;20293;-83
2022/04/26 07:56:52;;;;;;;9.43;8.52;;;11.20;99.90;;;;;;5054977;28;20229;-83
2022/04/26 07:59:21;;;;;;;9.55;8.48;;;11.30;99.90;;;;;;5055087;28;20205;-82
2022/04/26 08:01:49;;;;;;;9.85;8.98;;;11.30;99.90;;;;;;5055103;28;20333;-82
2022/04/26 08:04:17;;;;;;;8.80;8.00;;;11.40;99.90;;;;;;5055043;28;20237;-82
2022/04/26 08:06:47;;;;;;;10.00;9.07;;;11.40;99.90;;;;;;5055086;28;20270;-82
2022/04/26 08:09:15;;;;;;;13.30;9.98;;;11.50;99.90;;;;;;5055076;28;20265;-82
2022/04/26 08:11:46;;;;;;;14.55;9.80;;;11.50;99.90;;;;;;5054156;28;20234;-82
2022/04/26 08:14:14;;;;;;;11.68;10.05;;;11.50;99.90;;;;;;5054473;28;20210;-82
2022/04/26 08:16:43;;;;;;;13.43;9.70;;;11.50;99.90;;;;;;5054563;28;20225;-82
2022/04/26 08:19:11;;;;;;;9.35;8.40;;;11.60;99.90;;;;;;5054675;28;20209;-82
2022/04/26 08:21:40;;;;;;;11.70;9.85;;;11.70;99.90;;;;;;5054467;28;20318;-82
2022/04/26 08:29:44;;;;;;;10.88;9.05;;;11.80;99.90;;;;;;5054432;28;20220;-82
2022/04/26 08:32:13;;;;;;;10.70;9.55;;;11.80;99.90;;;;;;5054284;28;20245;-82
2022/04/26 08:34:41;;;;;;;9.55;8.65;;;11.90;99.90;;;;;;5054566;28;20212;-82
2022/04/26 08:37:10;;;;;;;10.63;9.63;;;12.00;99.90;;;;;;5054253;28;20245;-82
2022/04/26 08:39:40;;;;;;;10.55;9.57;;;11.90;99.90;;;;;;5054480;28;20202;-82
2022/04/26 08:42:08;;;;;;;10.88;9.90;;;12.00;99.90;;;;;;5053977;28;20221;-82
2022/04/26 08:44:38;;;;;;;10.70;8.68;;;11.90;99.90;;;;;;5053928;28;20226;-82
2022/04/26 08:52:49;;;;;;;8.95;7.85;;;11.90;99.90;;;;;;5053925;28;20304;-82
2022/04/26 08:55:19;;;;;;;10.90;9.75;;;11.90;99.90;;;;;;5053906;28;20288;-84
2022/04/26 08:57:48;;;;;;;9.32;8.43;;;11.90;99.90;;;;;;5054047;28;20214;-83
2022/04/26 09:00:17;;;;;;;10.60;9.50;;;12.00;99.90;;;;;;5054069;28;20273;-83
2022/04/26 09:03:01;;;;;;;12.48;9.20;;;11.90;99.90;;;;;;5054114;28;20313;-82
2022/04/26 09:05:30;;;;;;;14.65;9.65;;;11.90;99.90;;;;;;5053741;28;20249;-82
2022/04/26 09:07:59;;;;;;;9.82;8.82;;;11.90;99.90;;;;;;5053499;28;20221;-83
2022/04/26 09:10:29;;;;;;;10.20;8.90;;;11.90;99.90;;;;;;5053527;28;20201;-83
2022/04/26 09:13:04;;;;;;;13.20;9.88;;;11.90;99.90;;;;;;5053666;28;20308;-82
2022/04/26 09:15:39;;;;;;;13.23;9.65;;;11.90;99.90;;;;;;5053905;28;20201;-83
2022/04/26 09:18:17;;;;;;;13.32;10.15;;;12.00;99.90;;;;;;5053498;28;20262;-82
2022/04/26 09:20:46;;;;;;;10.75;9.32;;;12.00;99.90;;;;;;5053828;28;20208;-83
2022/04/26 09:23:19;;;;;;;13.07;11.57;;;12.00;99.90;;;;;;5053511;28;20236;-83
2022/04/26 09:25:53;;;;;;;11.32;9.77;;;12.00;99.90;;;;;;5052762;28;20296;-83
2022/04/26 09:28:27;;;;;;;12.18;10.95;;;12.10;99.90;;;;;;5053599;28;20280;-83
2022/04/26 09:30:57;;;;;;;11.98;10.75;;;12.10;99.90;;;;;;5053054;28;20232;-84
2022/04/26 09:33:39;;;;;;;14.77;11.25;;;12.10;99.90;;;;;;5053388;28;20302;-83
2022/04/26 09:36:10;;;;;;;11.13;9.98;;;12.20;99.90;;;;;;5053193;28;20226;-83
2022/04/26 09:38:39;;;;;;;10.85;9.82;;;12.20;99.90;;;;;;5053259;28;20228;-83
2022/04/26 09:41:10;;;;;;;11.07;9.93;;;12.30;99.90;;;;;;5053175;28;20206;-83
2022/04/26 09:43:39;;;;;;;10.90;9.68;;;12.30;99.90;;;;;;5053178;28;20241;-83
2022/04/26 09:46:08;;;;;;;10.73;9.70;;;12.30;99.90;;;;;;5052952;28;20248;-83
2022/04/26 09:48:37;;;;;;;11.55;10.35;;;12.30;99.90;;;;;;5052979;28;20213;-83
2022/04/26 09:51:06;;;;;;;9.40;8.50;;;12.40;99.90;;;;;;5052768;28;20244;-83
2022/04/26 09:53:34;;;;;;;12.25;10.57;;;12.40;99.90;;;;;;5053306;28;20206;-83
2022/04/26 09:56:05;;;;;;;10.68;9.63;;;12.40;99.90;;;;;;5053174;28;20288;-83
2022/04/26 09:58:55;;;;;;;11.13;10.00;;;12.50;99.90;;;;;;5053092;28;20241;-83
2022/04/26 10:01:28;;;;;;;12.50;10.63;;;12.60;99.90;;;;;;5052775;28;20303;-83
2022/04/26 10:04:03;;;;;;;10.65;9.60;;;12.60;99.90;;;;;;5052689;28;20228;-83
2022/04/26 10:06:34;;;;;;;13.65;8.98;;;12.60;99.90;;;;;;5053167;28;20205;-83
2022/04/26 10:09:03;;;;;;;13.30;10.52;;;12.60;99.90;;;;;;5052409;28;20232;-83
2022/04/26 10:11:32;;;;;;;13.63;9.15;;;12.60;99.90;;;;;;5052397;28;20309;-83
2022/04/26 10:14:05;;;;;;;10.55;9.50;;;12.60;99.90;;;;;;5052634;28;20293;-83
2022/04/26 10:16:34;;;;;;;10.95;9.85;;;12.50;99.90;;;;;;5052554;28;20310;-83
2022/04/26 10:19:06;;;;;;;9.98;9.00;;;12.50;99.90;;;;;;5052390;28;20206;-83
2022/04/26 10:21:47;;;;;;;9.90;8.98;;;12.50;99.90;;;;;;5052223;28;20291;-83
2022/04/26 10:24:21;;;;;;;13.90;10.52;;;12.60;99.90;;;;;;5052700;28;20296;-83
2022/04/26 10:26:50;;;;;;;10.68;9.65;;;12.70;99.90;;;;;;5052792;28;20206;-83
2022/04/26 10:29:25;;;;;;;10.45;9.38;;;12.80;99.90;;;;;;5052369;28;20241;-83
2022/04/26 10:32:01;;;;;;;9.45;8.38;;;12.80;99.90;;;;;;5052566;28;20252;-83
2022/04/26 10:34:35;;;;;;;9.32;8.50;;;12.80;99.90;;;;;;5052519;28;20234;-83
2022/04/26 10:37:32;;;;;;;8.73;7.93;;;12.60;99.90;;;;;;5056853;28;20252;-83
2022/04/26 10:40:02;;;;;;;8.18;7.47;;;12.60;99.90;;;;;;5058834;28;20244;-83
2022/04/26 10:42:35;;;;;;;9.27;7.72;;;12.60;99.90;;;;;;5058803;28;20229;-83
2022/04/26 10:45:12;;;;;;;9.32;8.43;;;12.60;99.90;;;;;;5058950;28;20205;-83
2022/04/26 10:47:42;;;;;;;8.75;7.85;;;12.50;99.90;;;;;;5058932;28;20201;-83
2022/04/26 10:50:12;;;;;;;13.38;9.50;;;12.60;99.90;;;;;;5058773;28;20201;-83
2022/04/26 10:52:47;;;;;;;15.93;11.60;;;12.60;99.90;;;;;;5058650;28;20233;-83
2022/04/26 10:55:17;;;;;;;11.20;10.07;;;12.70;99.90;;;;;;5059253;28;20208;-83
2022/04/26 10:57:52;;;;;;;9.63;8.73;;;12.60;99.90;;;;;;5059231;28;20321;-83
2022/04/26 11:00:41;;;;;;;11.45;10.32;;;12.60;99.90;;;;;;5058989;28;20272;-83
2022/04/26 11:03:09;;;;;;;10.80;9.55;;;12.70;99.90;;;;;;5058268;28;20317;-83
2022/04/26 11:05:39;;;;;;;13.65;11.07;;;12.90;99.90;;;;;;5058526;28;20209;-83
2022/04/26 11:08:09;;;;;;;11.90;9.63;;;13.20;99.90;;;;;;5058477;28;20264;-83
2022/04/26 11:13:35;;;;;;;10.35;9.35;;;13.80;99.90;;;;;;5058342;28;20205;-84
2022/04/26 11:16:12;;;;;;;10.07;9.07;;;13.90;99.90;;;;;;5058423;28;20205;-82
2022/04/26 11:18:42;;;;;;;8.98;8.10;;;14.10;99.90;;;;;;5058066;28;20250;-83
2022/04/26 11:21:15;;;;;;;7.57;6.78;;;14.20;99.90;;;;;;5058241;28;20229;-83
2022/04/26 11:29:22;;;;;;;11.15;9.23;;;14.60;99.90;;;;;;5040866;28;20237;-83
2022/04/26 11:31:51;;;;;;;7.22;6.53;;;15.00;99.90;;;;;;5058500;28;20308;-83
2022/04/26 11:34:20;;;;;;;8.32;7.30;;;15.30;99.90;;;;;;5058269;28;20233;-83
2022/04/26 11:36:50;;;;;;;6.18;5.63;;;15.70;99.90;;;;;;5058506;28;20225;-83
2022/04/26 11:39:18;;;;;;;6.15;5.55;;;16.00;99.90;;;;;;5058244;28;20278;-84
2022/04/26 11:41:47;;;;;;;9.93;6.72;;;16.30;99.90;;;;;;5058029;28;20282;-83
2022/04/26 11:44:16;;;;;;;8.32;6.78;;;16.30;99.90;;;;;;5058422;28;20237;-83
2022/04/26 11:49:42;;;;;;;9.10;6.25;;;16.20;99.90;;;;;;5164667;27;20533;-83
2022/04/26 11:52:11;;;;;;;6.07;5.57;;;16.80;99.90;;;;;;5130737;27;20242;-83
2022/04/26 11:54:39;;;;;;;5.43;4.93;;;17.00;99.90;;;;;;5130787;27;20266;-84
2022/04/26 11:57:08;;;;;;;6.03;5.53;;;17.30;99.90;;;;;;5130791;27;20290;-84
2022/04/26 11:59:36;;;;;;;5.07;4.65;;;17.40;99.90;;;;;;5130537;27;20204;-84
2022/04/26 12:02:07;;;;;;;6.57;5.38;;;17.60;99.90;;;;;;5130538;27;20226;-84
2022/04/26 12:04:36;;;;;;;6.00;5.15;;;17.50;99.90;;;;;;5130990;27;20203;-84
2022/04/26 12:07:06;;;;;;;5.70;5.20;;;17.40;99.90;;;;;;5130538;27;20222;-83
2022/04/26 12:09:34;;;;;;;5.82;5.32;;;17.30;99.90;;;;;;5130382;27;20214;-84
2022/04/26 12:12:05;;;;;;;7.10;5.28;;;17.40;99.90;;;;;;5130273;27;20223;-83
2022/04/26 12:14:37;;;;;;;8.65;5.90;;;17.60;99.90;;;;;;5130396;27;20286;-84
2022/04/26 12:17:18;;;;;;;4.60;4.20;;;17.90;99.90;;;;;;5130529;27;20203;-84
2022/04/26 12:19:50;;;;;;;5.18;4.75;;;18.10;99.90;;;;;;5130171;27;20316;-84
2022/04/26 12:22:25;;;;;;;5.57;5.05;;;18.10;99.90;;;;;;5130045;27;20243;-84
2022/04/26 12:24:54;;;;;;;4.68;4.28;;;18.40;99.60;;;;;;5130470;27;20222;-84
2022/04/26 12:27:25;;;;;;;5.72;5.05;;;18.60;99.00;;;;;;5130302;27;20224;-84
2022/04/26 12:29:53;;;;;;;5.45;4.95;;;18.70;98.80;;;;;;5130141;27;20239;-84
2022/04/26 12:32:26;;;;;;;4.43;4.03;;;18.90;97.70;;;;;;5129993;27;20227;-83
2022/04/26 12:34:56;;;;;;;4.68;4.28;;;19.10;98.20;;;;;;5130062;27;20252;-84
2022/04/26 12:37:29;;;;;;;5.10;4.60;;;19.40;97.60;;;;;;5130058;27;20252;-83
2022/04/26 12:39:59;;;;;;;4.10;3.67;;;19.50;97.80;;;;;;5129715;27;20263;-84
2022/04/26 12:42:34;;;;;;;3.83;3.55;;;19.40;96.00;;;;;;5129844;27;20220;-83
2022/04/26 12:45:04;;;;;;;4.38;3.97;;;19.60;95.60;;;;;;5130165;27;20266;-84
2022/04/26 12:50:32;;;;;;;5.45;4.93;;;19.50;95.20;;;;;;5129666;27;20282;-84
2022/04/26 12:53:05;;;;;;;4.70;4.28;;;19.40;95.30;;;;;;5129825;27;20226;-84
2022/04/26 12:55:35;;;;;;;4.78;4.10;;;19.50;95.20;;;;;;5129963;27;20279;-84
2022/04/26 12:58:05;;;;;;;4.13;3.80;;;19.70;95.00;;;;;;5129774;27;20295;-84
2022/04/26 13:00:36;;;;;;;4.47;4.07;;;19.80;94.20;;;;;;5118027;27;20295;-84
2022/04/26 13:03:06;;;;;;;4.30;3.88;;;19.80;94.30;;;;;;5115837;28;20224;-84
2022/04/26 13:05:40;;;;;;;6.07;4.20;;;19.90;94.20;;;;;;5115828;28;20287;-84
2022/04/26 13:08:11;;;;;;;4.45;3.72;;;19.70;93.60;;;;;;5115805;28;20287;-85
2022/04/26 13:10:40;;;;;;;3.90;3.58;;;19.40;94.00;;;;;;5115166;28;20223;-85
2022/04/26 13:13:09;;;;;;;4.43;4.03;;;19.40;93.20;;;;;;5115312;28;20265;-85
2022/04/26 13:15:41;;;;;;;4.32;3.90;;;19.30;92.60;;;;;;5115237;28;20219;-84
2022/04/26 13:18:12;;;;;;;3.75;3.45;;;19.00;92.70;;;;;;5115839;28;20207;-85
2022/04/26 13:20:40;;;;;;;4.10;3.72;;;19.00;92.50;;;;;;5115341;28;20235;-85
2022/04/26 13:23:14;;;;;;;4.22;3.88;;;19.00;93.90;;;;;;5115368;28;20219;-85
2022/04/26 13:25:43;;;;;;;3.67;3.38;;;18.90;93.00;;;;;;5115330;28;20200;-85
2022/04/26 13:28:12;;;;;;;3.45;3.15;;;18.90;93.80;;;;;;5115280;28;20292;-85
2022/04/26 13:30:41;;;;;;;4.00;3.53;;;18.90;93.30;;;;;;5115301;28;20207;-85
2022/04/26 13:33:10;;;;;;;3.97;3.67;;;18.80;92.80;;;;;;5115233;28;20380;-85
2022/04/26 13:35:44;;;;;;;16.00;3.72;;;18.70;93.50;;;;;;5115265;28;20211;-84
2022/04/26 13:38:16;;;;;;;4.03;3.75;;;18.70;93.60;;;;;;5115441;28;20291;-85
2022/04/26 13:40:45;;;;;;;4.07;3.78;;;18.70;93.80;;;;;;5114753;28;20207;-85
2022/04/26 13:43:14;;;;;;;4.40;4.00;;;18.60;93.70;;;;;;5114787;28;20238;-85
2022/04/26 13:46:02;;;;;;;4.18;3.67;;;18.50;92.60;;;;;;5115216;28;20199;-84
2022/04/26 13:48:30;;;;;;;3.92;3.58;;;18.30;93.10;;;;;;5115458;27;20216;-84
2022/04/26 13:50:58;;;;;;;4.35;3.95;;;18.10;94.60;;;;;;5114758;28;20267;-84
2022/04/26 13:53:30;;;;;;;4.57;4.18;;;18.10;94.40;;;;;;5114930;28;20235;-84
2022/04/26 13:55:59;;;;;;;3.35;2.97;;;18.10;92.60;;;;;;5115082;28;20195;-84
2022/04/26 13:58:28;;;;;;;4.40;3.92;;;18.30;94.90;;;;;;5114693;28;20215;-84
2022/04/26 14:00:56;;;;;;;3.95;3.63;;;18.50;94.10;;;;;;5114225;28;20235;-84
2022/04/26 14:03:27;;;;;;;4.63;4.22;;;18.50;94.00;;;;;;5114799;28;20267;-85
2022/04/26 14:05:56;;;;;;;8.02;5.40;;;18.60;94.60;;;;;;5114573;28;20200;-84
2022/04/26 14:08:25;;;;;;;6.63;6.03;;;18.80;94.40;;;;;;5114568;28;20212;-84
2022/04/26 14:10:54;;;;;;;4.80;4.40;;;18.70;94.10;;;;;;5113153;28;20200;-83
2022/04/26 14:13:25;;;;;;;6.28;5.68;;;18.40;94.60;;;;;;5114336;28;20212;-84
2022/04/26 14:24:12;;;;;;;5.38;4.88;;;18.40;95.60;;;;;;5114651;28;20256;-85
2022/04/26 14:26:42;;;;;;;7.15;5.25;;;18.50;95.00;;;;;;5114428;28;20203;-84
2022/04/26 14:29:11;;;;;;;4.95;4.55;;;18.60;94.70;;;;;;5114276;28;20282;-85
2022/04/26 14:31:45;;;;;;;5.70;5.18;;;18.70;95.10;;;;;;5113818;28;20228;-85
2022/04/26 14:34:14;;;;;;;5.03;4.53;;;18.70;95.50;;;;;;5113799;28;20207;-84
2022/04/26 14:36:43;;;;;;;6.00;4.93;;;18.70;94.40;;;;;;5113814;28;20206;-84
2022/04/26 14:39:26;;;;;;;6.97;5.20;;;18.70;94.00;;;;;;5114115;28;20250;-84
2022/04/26 14:41:56;;;;;;;5.05;4.65;;;18.50;94.90;;;;;;5113769;28;20223;-84
2022/04/26 14:44:24;;;;;;;6.53;5.22;;;18.40;95.20;;;;;;5113845;28;20199;-84
2022/04/26 14:46:53;;;;;;;4.78;4.38;;;18.40;95.10;;;;;;5114148;28;20238;-84
2022/04/26 14:49:21;;;;;;;4.30;4.00;;;18.50;95.70;;;;;;5114129;28;20294;-84
2022/04/26 14:51:49;;;;;;;4.45;4.00;;;18.50;95.30;;;;;;5113419;28;20223;-84
2022/04/26 14:54:18;;;;;;;4.38;3.97;;;18.70;95.00;;;;;;5113720;28;20282;-84
2022/04/26 14:56:46;;;;;;;4.18;3.85;;;18.70;94.80;;;;;;5113690;28;20217;-84
2022/04/26 14:59:18;;;;;;;4.43;3.97;;;18.70;94.70;;;;;;5113401;28;20224;-85
2022/04/26 15:01:48;;;;;;;7.47;4.85;;;18.70;95.40;;;;;;5113475;28;20227;-84
2022/04/26 15:04:17;;;;;;;4.55;4.15;;;18.70;95.30;;;;;;5113511;28;20212;-84
2022/04/26 15:06:46;;;;;;;5.18;4.68;;;18.70;94.70;;;;;;5113500;28;20237;-84
2022/04/26 15:17:34;;;;;;;4.53;4.13;;;18.50;95.50;;;;;;5113583;28;20204;-85
2022/04/26 15:20:03;;;;;;;7.35;5.35;;;18.50;95.50;;;;;;5113164;28;20310;-84
2022/04/26 15:22:32;;;;;;;4.97;4.57;;;18.50;95.50;;;;;;5112694;28;20228;-84
2022/04/26 15:25:01;;;;;;;5.15;4.65;;;18.40;95.70;;;;;;5112848;28;20227;-84
2022/04/26 15:27:29;;;;;;;4.82;4.43;;;18.30;95.50;;;;;;5113054;28;20253;-84
2022/04/26 15:29:59;;;;;;;4.70;4.30;;;18.20;96.10;;;;;;5112895;28;20259;-84
2022/04/26 15:32:27;;;;;;;4.88;4.47;;;18.00;96.00;;;;;;5112789;28;20224;-84
2022/04/26 15:34:55;;;;;;;5.32;4.93;;;17.80;96.40;;;;;;5112674;28;20203;-84
2022/04/26 15:37:25;;;;;;;4.93;4.50;;;17.70;96.20;;;;;;5112847;28;20211;-84
2022/04/26 15:39:54;;;;;;;7.07;5.35;;;17.50;97.00;;;;;;5112756;28;20223;-84
2022/04/26 15:42:22;;;;;;;5.78;4.85;;;17.30;97.40;;;;;;5112999;28;20223;-84
2022/04/26 15:44:51;;;;;;;5.32;4.82;;;17.10;97.40;;;;;;5112967;28;20231;-84
2022/04/26 15:47:21;;;;;;;5.40;4.68;;;17.00;97.90;;;;;;5112963;28;20234;-84
2022/04/26 15:49:50;;;;;;;6.57;5.85;;;17.00;98.40;;;;;;5112784;28;20231;-84
2022/04/26 15:52:18;;;;;;;6.07;4.97;;;16.90;98.40;;;;;;5112538;28;20224;-84
2022/04/26 15:54:47;;;;;;;5.65;5.15;;;16.70;99.20;;;;;;5112939;28;20268;-84
2022/04/26 15:57:21;;;;;;;6.53;5.22;;;16.70;99.20;;;;;;5112763;28;20241;-84
2022/04/26 15:59:49;;;;;;;5.82;5.32;;;16.70;99.90;;;;;;5112706;28;20328;-84
2022/04/26 16:02:19;;;;;;;6.63;5.30;;;16.80;99.90;;;;;;5112637;28;20219;-84
2022/04/26 16:04:49;;;;;;;6.47;5.78;;;16.80;99.80;;;;;;5112699;28;20204;-84
2022/04/26 16:07:19;;;;;;;5.60;5.03;;;16.80;99.90;;;;;;5112695;28;20279;-84
2022/04/26 16:21:03;;;;;;;5.85;5.15;;;16.50;99.90;;;;;;5049369;28;20279;-84
2022/04/26 16:23:31;;;;;;;6.90;5.32;;;16.40;99.90;;;;;;5099214;28;20204;-84
2022/04/26 16:26:02;;;;;;;5.95;5.35;;;16.30;99.90;;;;;;5112318;28;20207;-84
2022/04/26 16:28:31;;;;;;;6.00;5.30;;;16.20;99.90;;;;;;5112948;28;20212;-84
2022/04/26 16:30:59;;;;;;;6.20;5.60;;;16.20;99.90;;;;;;5111937;28;20219;-84
2022/04/26 16:33:28;;;;;;;5.75;5.10;;;16.20;99.90;;;;;;5112640;28;20200;-84
2022/04/26 16:35:56;;;;;;;5.70;5.20;;;16.20;99.90;;;;;;5116115;28;20215;-84
2022/04/26 16:38:26;;;;;;;6.25;5.38;;;16.10;99.90;;;;;;5116317;28;20272;-84
2022/04/26 16:40:56;;;;;;;7.80;5.45;;;16.10;99.90;;;;;;5115632;28;20230;-84
2022/04/26 16:43:25;;;;;;;6.30;5.70;;;16.00;99.90;;;;;;5116623;27;20212;-84
2022/04/26 16:45:53;;;;;;;6.22;5.47;;;15.90;99.90;;;;;;5116187;28;20295;-84
2022/04/26 16:48:25;;;;;;;6.63;5.43;;;15.90;99.90;;;;;;5116209;28;20216;-84
2022/04/26 16:50:53;;;;;;;7.63;5.68;;;15.80;99.90;;;;;;5115979;28;20263;-84
2022/04/26 16:53:21;;;;;;;5.63;4.95;;;15.80;99.90;;;;;;5116112;28;20409;-84
2022/04/26 16:55:51;;;;;;;7.20;5.80;;;15.80;99.90;;;;;;5116216;28;20295;-84
2022/04/26 16:58:20;;;;;;;6.50;5.85;;;15.80;99.90;;;;;;5115566;28;20231;-84
2022/04/26 17:00:49;;;;;;;5.97;5.47;;;15.70;99.90;;;;;;5115709;28;20215;-84
2022/04/26 17:03:18;;;;;;;6.90;6.28;;;15.70;99.90;;;;;;5116027;28;20203;-84
2022/04/26 17:05:47;;;;;;;7.47;5.63;;;15.60;99.90;;;;;;5115789;28;20215;-85
2022/04/26 17:08:17;;;;;;;5.60;5.03;;;15.60;99.90;;;;;;5115787;28;20208;-84
2022/04/26 17:10:47;;;;;;;5.95;5.43;;;15.60;99.90;;;;;;5115420;28;20249;-84
2022/04/26 17:13:17;;;;;;;5.70;5.25;;;15.50;99.90;;;;;;5115867;28;20207;-85
2022/04/26 17:15:46;;;;;;;6.60;6.03;;;15.50;99.90;;;;;;5115666;28;20242;-84
2022/04/26 17:18:14;;;;;;;8.13;6.07;;;15.40;99.90;;;;;;5115842;28;20219;-85
2022/04/26 17:20:43;;;;;;;7.53;6.60;;;15.40;99.90;;;;;;5115296;28;20298;-84
2022/04/26 17:23:11;;;;;;;9.05;5.53;;;15.40;99.90;;;;;;5115823;28;20306;-84
2022/04/26 17:25:39;;;;;;;8.27;6.57;;;15.30;99.90;;;;;;5116097;28;20271;-86
2022/04/26 17:28:13;;;;;;;7.07;6.38;;;15.30;99.90;;;;;;5115561;28;20257;-86